createdAt,value
2023-01-07T00:00:21.267Z,57.67
2023-01-07T00:05:20.221Z,57.73
2023-01-07T00:10:18.960Z,57.63
2023-01-07T00:15:19.123Z,57.46
2023-01-07T00:20:18.129Z,57.67
2023-01-07T00:25:17.091Z,57.74
2023-01-07T00:30:15.951Z,58.07
2023-01-07T00:35:23.420Z,58.35
2023-01-07T00:40:23.159Z,58.38
2023-01-07T00:45:22.175Z,58.79
2023-01-07T00:50:22.996Z,58.78
2023-01-07T00:55:22.089Z,58.89
2023-01-07T01:00:22.863Z,58.80
2023-01-07T01:05:23.796Z,59.30
2023-01-07T01:10:22.569Z,60.26
2023-01-07T01:15:21.775Z,59.80
2023-01-07T01:20:22.538Z,59.50
2023-01-07T01:25:21.445Z,59.37
2023-01-07T01:30:20.930Z,59.27
2023-01-07T01:35:19.888Z,59.25
2023-01-07T01:40:20.686Z,59.32
2023-01-07T01:45:20.789Z,59.14
2023-01-07T01:50:25.269Z,59.06
2023-01-07T01:55:30.553Z,59.28
2023-01-07T02:00:30.893Z,59.96
2023-01-07T02:05:34.212Z,60.33
2023-01-07T02:10:35.293Z,61.33
2023-01-07T02:15:53.320Z,61.32
2023-01-07T02:21:02.272Z,61.26
2023-01-07T02:26:42.833Z,61.31
2023-01-07T02:32:11.658Z,61.20
2023-01-07T02:37:16.029Z,60.77
2023-01-07T02:42:24.715Z,60.32
2023-01-07T02:47:29.628Z,60.16
2023-01-07T02:52:35.248Z,59.85
2023-01-07T02:57:56.037Z,60.01
2023-01-07T03:03:15.370Z,59.90
2023-01-07T03:08:36.014Z,59.61
2023-01-07T03:13:40.280Z,59.93
2023-01-07T03:18:47.342Z,60.08
2023-01-07T03:23:51.901Z,60.27
2023-01-07T03:28:52.462Z,60.34
2023-01-07T03:33:56.955Z,60.70
2023-01-07T03:38:57.582Z,60.83
2023-01-07T03:43:57.589Z,61.48
2023-01-07T03:48:58.104Z,61.38
2023-01-07T03:53:57.185Z,61.08
2023-01-07T03:58:56.416Z,60.94
2023-01-07T04:03:55.485Z,61.04
2023-01-07T04:08:56.268Z,60.96
2023-01-07T04:13:55.196Z,61.02
2023-01-07T04:18:54.188Z,61.13
2023-01-07T04:23:53.181Z,60.97
2023-01-07T04:28:53.681Z,60.97
2023-01-07T04:33:52.583Z,60.97
2023-01-07T04:38:51.998Z,60.73
2023-01-07T04:43:51.284Z,60.77
2023-01-07T04:48:51.533Z,60.97
2023-01-07T04:53:50.535Z,60.69
2023-01-07T04:58:49.580Z,61.00
2023-01-07T05:03:51.080Z,60.85
2023-01-07T05:08:49.980Z,60.67
2023-01-07T05:13:50.933Z,60.69
2023-01-07T05:18:52.151Z,60.70
2023-01-07T05:23:52.094Z,60.88
2023-01-07T05:28:51.367Z,60.33
2023-01-07T05:33:51.627Z,60.42
2023-01-07T05:38:50.614Z,60.39
2023-01-07T05:43:49.601Z,60.09
2023-01-07T05:48:48.503Z,60.15
2023-01-07T05:53:48.699Z,60.40
2023-01-07T05:58:47.505Z,60.58
2023-01-07T06:03:46.551Z,60.79
2023-01-07T06:08:45.526Z,60.99
2023-01-07T06:13:45.703Z,61.46
2023-01-07T06:18:44.520Z,62.24
2023-01-07T06:23:43.612Z,62.27
2023-01-07T06:28:42.436Z,62.16
2023-01-07T06:33:42.547Z,62.23
2023-01-07T06:38:41.785Z,62.45
2023-01-07T06:43:40.589Z,64.62
2023-01-07T06:48:39.455Z,64.83
2023-01-07T06:53:39.611Z,65.11
2023-01-07T06:58:38.410Z,65.65
2023-01-07T07:03:39.225Z,67.17
2023-01-07T07:08:39.482Z,68.77
2023-01-07T07:13:38.232Z,71.03
2023-01-07T07:18:37.134Z,72.83
2023-01-07T07:23:35.927Z,73.76
2023-01-07T07:28:36.030Z,75.03
2023-01-07T07:33:34.707Z,75.22
2023-01-07T07:38:33.495Z,77.09
2023-01-07T07:43:32.275Z,76.49
2023-01-07T07:48:32.455Z,78.26
2023-01-07T07:53:31.323Z,77.31
2023-01-07T07:58:30.168Z,80.46
2023-01-07T08:03:29.272Z,81.05
2023-01-07T08:08:31.377Z,82.14
2023-01-07T08:13:32.227Z,80.91
2023-01-07T08:18:32.826Z,80.72
2023-01-07T08:23:34.932Z,81.25
2023-01-07T08:28:35.004Z,81.62
2023-01-07T08:33:37.705Z,81.33
2023-01-07T08:38:38.033Z,81.86
2023-01-07T08:43:36.841Z,79.66
2023-01-07T08:48:35.944Z,80.85
2023-01-07T08:53:35.351Z,80.55
2023-01-07T08:58:35.657Z,80.70
2023-01-07T09:03:34.592Z,79.08
2023-01-07T09:08:33.461Z,76.77
2023-01-07T09:13:32.276Z,77.37
2023-01-07T09:18:32.516Z,74.74
2023-01-07T09:23:31.294Z,72.16
2023-01-07T09:28:30.416Z,71.46
2023-01-07T09:33:29.205Z,66.85
2023-01-07T09:38:30.046Z,64.99
2023-01-07T09:43:58.777Z,65.46
2023-01-07T09:48:58.629Z,65.35
2023-01-07T09:54:02.881Z,62.81
2023-01-07T09:59:02.936Z,61.19
2023-01-07T10:04:16.703Z,60.76
2023-01-07T10:09:30.593Z,60.29
2023-01-07T10:14:49.814Z,58.23
2023-01-07T10:19:56.237Z,56.99
2023-01-07T10:25:01.333Z,56.15
2023-01-07T10:30:06.737Z,55.64
2023-01-07T10:35:14.019Z,54.93
2023-01-07T10:40:26.497Z,55.63
2023-01-07T10:45:38.677Z,53.35
2023-01-07T10:51:04.851Z,52.64
2023-01-07T10:56:17.646Z,52.70
2023-01-07T11:01:24.600Z,52.93
2023-01-07T11:06:32.972Z,50.95
2023-01-07T11:11:34.676Z,51.46
2023-01-07T11:16:38.336Z,50.89
2023-01-07T11:21:43.951Z,50.76
2023-01-07T11:26:47.920Z,50.09
2023-01-07T11:31:51.596Z,50.71
2023-01-07T11:36:50.424Z,49.35
2023-01-07T11:42:21.562Z,49.60
2023-01-07T11:47:21.096Z,48.13
2023-01-07T11:52:21.339Z,46.83
2023-01-07T11:57:25.580Z,46.35
2023-01-07T12:02:28.024Z,46.47
2023-01-07T12:07:27.193Z,45.84
2023-01-07T12:12:37.108Z,47.26
2023-01-07T12:17:36.921Z,45.94
2023-01-07T12:22:47.999Z,44.43
2023-01-07T12:27:58.027Z,43.95
2023-01-07T12:33:12.035Z,42.50
2023-01-07T12:38:14.760Z,41.55
2023-01-07T12:43:18.035Z,40.77
2023-01-07T12:48:21.392Z,41.02
2023-01-07T12:53:26.965Z,40.86
2023-01-07T12:58:41.184Z,41.27
2023-01-07T13:03:50.749Z,41.05
2023-01-07T13:08:59.330Z,39.77
2023-01-07T13:13:59.691Z,41.03
2023-01-07T13:18:58.477Z,40.46
2023-01-07T13:24:56.199Z,40.28
2023-01-07T13:30:03.499Z,40.45
2023-01-07T13:35:20.532Z,39.52
2023-01-07T13:40:36.261Z,38.69
2023-01-07T13:45:39.430Z,38.96
2023-01-07T13:50:41.871Z,39.97
2023-01-07T13:55:42.788Z,39.24
2023-01-07T14:01:02.619Z,38.87
2023-01-07T14:06:34.114Z,39.03
2023-01-07T14:11:53.670Z,38.81
2023-01-07T14:17:03.430Z,38.45
2023-01-07T14:22:10.706Z,39.02
2023-01-07T14:27:35.422Z,39.12
2023-01-07T14:32:37.800Z,40.09
2023-01-07T14:37:39.275Z,40.18
2023-01-07T14:42:43.962Z,39.70
2023-01-07T14:47:56.752Z,40.15
2023-01-07T14:53:46.751Z,40.98
2023-01-07T14:59:16.268Z,41.47
2023-01-07T15:04:38.568Z,42.53
2023-01-07T15:10:00.089Z,43.05
2023-01-07T15:15:24.861Z,43.93
2023-01-07T15:20:28.279Z,44.33
2023-01-07T15:25:36.201Z,44.94
2023-01-07T15:30:44.565Z,45.68
2023-01-07T15:35:45.955Z,46.09
2023-01-07T15:40:47.910Z,46.73
2023-01-07T15:45:46.951Z,47.27
2023-01-07T15:50:47.592Z,47.77
2023-01-07T15:55:54.009Z,48.55
2023-01-07T16:00:53.692Z,49.05
2023-01-07T16:05:54.392Z,49.27
2023-01-07T16:11:02.331Z,49.79
2023-01-07T16:16:03.588Z,49.92
2023-01-07T16:21:07.394Z,50.29
2023-01-07T16:26:08.724Z,50.66
2023-01-07T16:31:11.877Z,50.99
2023-01-07T16:36:15.207Z,51.07
2023-01-07T16:41:23.053Z,51.57
2023-01-07T16:46:26.077Z,51.91
2023-01-07T16:51:41.028Z,52.39
2023-01-07T16:56:39.836Z,52.52
2023-01-07T17:01:38.815Z,52.72
2023-01-07T17:06:44.032Z,53.00
2023-01-07T17:11:42.874Z,53.28
2023-01-07T17:16:42.482Z,53.46
2023-01-07T17:21:44.934Z,53.89
2023-01-07T17:26:49.023Z,54.17
2023-01-07T17:31:48.451Z,54.81
2023-01-07T17:36:50.775Z,54.85
2023-01-07T17:42:06.963Z,55.71
2023-01-07T17:47:09.911Z,55.84
2023-01-07T17:52:12.014Z,55.90
2023-01-07T17:57:12.971Z,56.47
2023-01-07T18:02:17.025Z,56.16
2023-01-07T18:07:17.583Z,56.05
2023-01-07T18:12:34.613Z,56.13
2023-01-07T18:17:33.480Z,56.21
2023-01-07T18:22:33.728Z,56.56
2023-01-07T18:27:32.491Z,56.69
2023-01-07T18:32:31.292Z,57.13
2023-01-07T18:37:30.097Z,56.83
2023-01-07T18:42:30.422Z,56.96
2023-01-07T18:47:29.211Z,57.12
2023-01-07T18:52:28.961Z,57.13
2023-01-07T18:57:29.090Z,56.98
2023-01-07T19:02:27.807Z,56.97
2023-01-07T19:07:26.728Z,56.53
2023-01-07T19:12:25.660Z,56.67
2023-01-07T19:17:27.898Z,56.24
2023-01-07T19:22:26.846Z,56.39
2023-01-07T19:27:25.791Z,56.55
2023-01-07T19:32:24.602Z,56.85
2023-01-07T19:37:24.746Z,57.06
2023-01-07T19:42:23.618Z,57.38
2023-01-07T19:47:22.494Z,57.24
2023-01-07T19:52:21.304Z,57.46
2023-01-07T19:57:21.621Z,57.29
2023-01-07T20:02:20.574Z,57.31
2023-01-07T20:07:19.600Z,57.61
2023-01-07T20:12:19.728Z,58.23
2023-01-07T20:17:19.929Z,58.06
2023-01-07T20:22:18.927Z,58.21
2023-01-07T20:27:17.825Z,58.06
2023-01-07T20:32:18.383Z,58.24
2023-01-07T20:37:24.097Z,58.49
2023-01-07T20:42:22.902Z,58.62
2023-01-07T20:47:21.745Z,58.77
2023-01-07T20:52:21.963Z,58.62
2023-01-07T20:57:20.791Z,58.69
2023-01-07T21:02:19.769Z,58.80
2023-01-07T21:07:18.802Z,59.62
2023-01-07T21:12:19.102Z,59.78
2023-01-07T21:17:17.990Z,59.60
2023-01-07T21:22:16.897Z,59.69
2023-01-07T21:27:15.795Z,59.89
2023-01-07T21:32:16.003Z,59.80
2023-01-07T21:37:14.810Z,59.59
2023-01-07T21:42:13.656Z,59.75
2023-01-07T21:47:12.526Z,59.63
2023-01-07T21:52:12.744Z,60.21
2023-01-07T21:57:11.652Z,60.11
2023-01-07T22:02:11.352Z,60.00
2023-01-07T22:07:16.115Z,60.19
2023-01-07T22:12:16.418Z,60.14
2023-01-07T22:17:16.198Z,60.20
2023-01-07T22:22:16.947Z,60.27
2023-01-07T22:27:15.944Z,60.28
2023-01-07T22:32:14.769Z,60.20
2023-01-07T22:37:18.146Z,60.15
2023-01-07T22:42:21.491Z,60.42
2023-01-07T22:47:23.700Z,60.56
2023-01-07T22:52:24.272Z,60.64
2023-01-07T22:57:23.205Z,60.84
2023-01-07T23:02:21.987Z,60.77
2023-01-07T23:07:20.712Z,60.83
2023-01-07T23:12:20.942Z,60.82
2023-01-07T23:17:19.725Z,60.51
2023-01-07T23:22:18.517Z,60.56
2023-01-07T23:27:17.321Z,60.36
2023-01-07T23:32:17.631Z,60.27
2023-01-07T23:37:16.461Z,59.96
2023-01-07T23:42:15.249Z,59.85
2023-01-07T23:47:14.133Z,59.76
2023-01-07T23:52:14.283Z,59.75
2023-01-07T23:57:13.299Z,59.53
